sensor_id;sensor_type;location;lat;lon;timestamp;pressure;altitude;pressure_sealevel;temperature;humidity
60244;BME280;46106;51.468;5.814;2023-08-20T00:01:30;101770.06;;;17.78;100.00
60244;BME280;46106;51.468;5.814;2023-08-20T00:03:56;101767.03;;;17.91;100.00
60244;BME280;46106;51.468;5.814;2023-08-20T00:06:22;101770.53;;;17.93;100.00
60244;BME280;46106;51.468;5.814;2023-08-20T00:08:48;101771.38;;;17.74;100.00
60244;BME280;46106;51.468;5.814;2023-08-20T00:11:15;101772.69;;;17.70;100.00
60244;BME280;46106;51.468;5.814;2023-08-20T00:13:41;101781.00;;;17.79;100.00
60244;BME280;46106;51.468;5.814;2023-08-20T00:16:07;101780.75;;;17.92;100.00
60244;BME280;46106;51.468;5.814;2023-08-20T00:18:33;101775.91;;;18.04;100.00
60244;BME280;46106;51.468;5.814;2023-08-20T00:20:59;101773.72;;;18.08;100.00
60244;BME280;46106;51.468;5.814;2023-08-20T00:23:25;101769.91;;;18.18;100.00
60244;BME280;46106;51.468;5.814;2023-08-20T00:25:51;101763.91;;;18.13;100.00
60244;BME280;46106;51.468;5.814;2023-08-20T00:28:16;101767.47;;;18.06;100.00
60244;BME280;46106;51.468;5.814;2023-08-20T00:30:42;101769.03;;;17.98;100.00
60244;BME280;46106;51.468;5.814;2023-08-20T00:33:07;101777.50;;;17.97;100.00
60244;BME280;46106;51.468;5.814;2023-08-20T00:35:33;101772.56;;;17.81;100.00
60244;BME280;46106;51.468;5.814;2023-08-20T00:37:58;101779.81;;;17.82;100.00
60244;BME280;46106;51.468;5.814;2023-08-20T00:40:25;101768.59;;;17.64;100.00
60244;BME280;46106;51.468;5.814;2023-08-20T00:42:50;101769.06;;;17.59;100.00
60244;BME280;46106;51.468;5.814;2023-08-20T00:45:16;101775.16;;;17.53;100.00
60244;BME280;46106;51.468;5.814;2023-08-20T00:47:43;101783.63;;;17.52;100.00
60244;BME280;46106;51.468;5.814;2023-08-20T00:50:09;101784.19;;;17.55;100.00
60244;BME280;46106;51.468;5.814;2023-08-20T00:52:36;101787.53;;;17.59;100.00
60244;BME280;46106;51.468;5.814;2023-08-20T00:55:08;101787.13;;;17.63;100.00
60244;BME280;46106;51.468;5.814;2023-08-20T00:57:35;101788.72;;;17.56;100.00
60244;BME280;46106;51.468;5.814;2023-08-20T01:00:01;101789.44;;;17.49;100.00
60244;BME280;46106;51.468;5.814;2023-08-20T01:02:32;101783.88;;;17.39;100.00
60244;BME280;46106;51.468;5.814;2023-08-20T01:04:57;101786.97;;;17.55;100.00
60244;BME280;46106;51.468;5.814;2023-08-20T01:10:35;101800.63;;;17.37;100.00
60244;BME280;46106;51.468;5.814;2023-08-20T01:13:04;101808.34;;;17.34;100.00
60244;BME280;46106;51.468;5.814;2023-08-20T01:15:29;101810.09;;;17.35;100.00
60244;BME280;46106;51.468;5.814;2023-08-20T01:17:55;101809.94;;;17.36;100.00
60244;BME280;46106;51.468;5.814;2023-08-20T01:20:25;101818.56;;;17.33;100.00
60244;BME280;46106;51.468;5.814;2023-08-20T01:26:15;101822.81;;;17.47;100.00
60244;BME280;46106;51.468;5.814;2023-08-20T01:28:37;101827.94;;;17.61;100.00
60244;BME280;46106;51.468;5.814;2023-08-20T01:31:05;101829.69;;;17.72;100.00
60244;BME280;46106;51.468;5.814;2023-08-20T01:33:31;101845.00;;;17.76;100.00
60244;BME280;46106;51.468;5.814;2023-08-20T01:35:57;101838.47;;;17.77;100.00
60244;BME280;46106;51.468;5.814;2023-08-20T01:38:22;101846.63;;;17.89;100.00
60244;BME280;46106;51.468;5.814;2023-08-20T01:40:49;101841.56;;;17.94;100.00
60244;BME280;46106;51.468;5.814;2023-08-20T01:43:15;101836.59;;;17.97;100.00
60244;BME280;46106;51.468;5.814;2023-08-20T01:45:42;101829.59;;;17.93;100.00
60244;BME280;46106;51.468;5.814;2023-08-20T01:48:07;101825.38;;;17.89;100.00
60244;BME280;46106;51.468;5.814;2023-08-20T01:50:34;101833.22;;;17.84;100.00
60244;BME280;46106;51.468;5.814;2023-08-20T01:53:00;101830.72;;;17.81;100.00
60244;BME280;46106;51.468;5.814;2023-08-20T01:55:25;101834.22;;;17.73;100.00
60244;BME280;46106;51.468;5.814;2023-08-20T01:57:51;101834.22;;;17.73;100.00
60244;BME280;46106;51.468;5.814;2023-08-20T02:00:16;101846.03;;;17.75;100.00
60244;BME280;46106;51.468;5.814;2023-08-20T02:02:42;101849.56;;;17.87;100.00
60244;BME280;46106;51.468;5.814;2023-08-20T02:05:07;101845.88;;;17.87;100.00
60244;BME280;46106;51.468;5.814;2023-08-20T02:07:33;101846.78;;;17.97;100.00
60244;BME280;46106;51.468;5.814;2023-08-20T02:09:58;101844.63;;;18.00;100.00
60244;BME280;46106;51.468;5.814;2023-08-20T02:12:25;101846.94;;;18.05;100.00
60244;BME280;46106;51.468;5.814;2023-08-20T02:14:52;101842.88;;;18.09;100.00
60244;BME280;46106;51.468;5.814;2023-08-20T02:17:18;101842.72;;;18.01;100.00
60244;BME280;46106;51.468;5.814;2023-08-20T02:19:44;101842.72;;;18.01;100.00
60244;BME280;46106;51.468;5.814;2023-08-20T02:22:10;101847.41;;;18.00;100.00
60244;BME280;46106;51.468;5.814;2023-08-20T02:24:35;101855.72;;;18.00;100.00
60244;BME280;46106;51.468;5.814;2023-08-20T02:27:02;101855.09;;;17.97;100.00
60244;BME280;46106;51.468;5.814;2023-08-20T02:29:28;101862.53;;;17.96;100.00
60244;BME280;46106;51.468;5.814;2023-08-20T02:31:54;101863.88;;;18.02;100.00
60244;BME280;46106;51.468;5.814;2023-08-20T02:34:19;101867.22;;;17.96;100.00
60244;BME280;46106;51.468;5.814;2023-08-20T02:36:46;101864.31;;;17.97;100.00
60244;BME280;46106;51.468;5.814;2023-08-20T02:39:13;101867.53;;;18.03;100.00
60244;BME280;46106;51.468;5.814;2023-08-20T02:41:39;101868.53;;;18.11;100.00
60244;BME280;46106;51.468;5.814;2023-08-20T02:44:04;101868.81;;;18.18;100.00
60244;BME280;46106;51.468;5.814;2023-08-20T02:46:30;101854.53;;;18.23;100.00
60244;BME280;46106;51.468;5.814;2023-08-20T02:48:55;101868.97;;;18.26;100.00
60244;BME280;46106;51.468;5.814;2023-08-20T02:51:21;101849.84;;;18.23;100.00
60244;BME280;46106;51.468;5.814;2023-08-20T02:53:47;101848.69;;;18.26;100.00
60244;BME280;46106;51.468;5.814;2023-08-20T02:56:13;101847.69;;;18.17;100.00
60244;BME280;46106;51.468;5.814;2023-08-20T02:58:39;101852.31;;;18.16;100.00
60244;BME280;46106;51.468;5.814;2023-08-20T03:01:06;101849.13;;;18.11;100.00
60244;BME280;46106;51.468;5.814;2023-08-20T03:03:32;101853.50;;;18.04;100.00
60244;BME280;46106;51.468;5.814;2023-08-20T03:05:57;101844.91;;;17.88;100.00
60244;BME280;46106;51.468;5.814;2023-08-20T03:08:23;101848.69;;;17.96;100.00
60244;BME280;46106;51.468;5.814;2023-08-20T03:10:48;101847.25;;;18.02;100.00
60244;BME280;46106;51.468;5.814;2023-08-20T03:13:13;101840.94;;;18.10;100.00
60244;BME280;46106;51.468;5.814;2023-08-20T03:15:39;101845.91;;;18.06;100.00
60244;BME280;46106;51.468;5.814;2023-08-20T03:18:06;101843.72;;;18.00;100.00
60244;BME280;46106;51.468;5.814;2023-08-20T03:20:31;101835.13;;;18.03;100.00
60244;BME280;46106;51.468;5.814;2023-08-20T03:22:57;101829.16;;;17.88;100.00
60244;BME280;46106;51.468;5.814;2023-08-20T03:25:23;101837.41;;;17.78;100.00
60244;BME280;46106;51.468;5.814;2023-08-20T03:27:49;101839.47;;;17.76;100.00
60244;BME280;46106;51.468;5.814;2023-08-20T03:30:15;101834.22;;;17.73;100.00
60244;BME280;46106;51.468;5.814;2023-08-20T03:32:42;101838.72;;;17.64;100.00
60244;BME280;46106;51.468;5.814;2023-08-20T03:35:09;101832.75;;;17.59;100.00
60244;BME280;46106;51.468;5.814;2023-08-20T03:37:35;101837.69;;;17.66;100.00
60244;BME280;46106;51.468;5.814;2023-08-20T03:40:00;101828.78;;;17.52;100.00
60244;BME280;46106;51.468;5.814;2023-08-20T03:42:26;101836.97;;;17.54;100.00
60244;BME280;46106;51.468;5.814;2023-08-20T03:44:51;101830.38;;;17.45;100.00
60244;BME280;46106;51.468;5.814;2023-08-20T03:47:16;101831.22;;;17.36;100.00
60244;BME280;46106;51.468;5.814;2023-08-20T03:49:46;101832.09;;;17.36;100.00
60244;BME280;46106;51.468;5.814;2023-08-20T03:52:12;101829.63;;;17.33;100.00
60244;BME280;46106;51.468;5.814;2023-08-20T03:54:37;101836.28;;;17.21;100.00
60244;BME280;46106;51.468;5.814;2023-08-20T03:57:03;101834.09;;;17.15;100.00
60244;BME280;46106;51.468;5.814;2023-08-20T03:59:29;101839.88;;;17.12;100.00
60244;BME280;46106;51.468;5.814;2023-08-20T04:01:55;101854.00;;;17.08;100.00
60244;BME280;46106;51.468;5.814;2023-08-20T04:04:20;101847.31;;;17.11;100.00
60244;BME280;46106;51.468;5.814;2023-08-20T04:06:46;101854.81;;;17.20;100.00
60244;BME280;46106;51.468;5.814;2023-08-20T04:09:12;101850.72;;;17.24;100.00
60244;BME280;46106;51.468;5.814;2023-08-20T04:11:37;101851.63;;;17.25;100.00
60244;BME280;46106;51.468;5.814;2023-08-20T04:14:03;101846.94;;;17.25;100.00
60244;BME280;46106;51.468;5.814;2023-08-20T04:16:29;101848.69;;;17.17;100.00
60244;BME280;46106;51.468;5.814;2023-08-20T04:18:55;101846.91;;;17.16;100.00
60244;BME280;46106;51.468;5.814;2023-08-20T04:21:21;101841.19;;;17.07;100.00
60244;BME280;46106;51.468;5.814;2023-08-20T04:23:47;101847.47;;;17.09;100.00
60244;BME280;46106;51.468;5.814;2023-08-20T04:26:12;101847.00;;;17.04;100.00
60244;BME280;46106;51.468;5.814;2023-08-20T04:28:38;101854.59;;;17.02;100.00
60244;BME280;46106;51.468;5.814;2023-08-20T04:31:03;101846.66;;;16.88;100.00
60244;BME280;46106;51.468;5.814;2023-08-20T04:33:29;101848.56;;;16.87;100.00
60244;BME280;46106;51.468;5.814;2023-08-20T04:35:54;101850.56;;;16.85;100.00
60244;BME280;46106;51.468;5.814;2023-08-20T04:38:20;101853.72;;;16.81;100.00
60244;BME280;46106;51.468;5.814;2023-08-20T04:40:48;101867.91;;;16.87;100.00
60244;BME280;46106;51.468;5.814;2023-08-20T04:43:14;101866.16;;;16.86;100.00
60244;BME280;46106;51.468;5.814;2023-08-20T04:45:41;101862.75;;;16.83;100.00
60244;BME280;46106;51.468;5.814;2023-08-20T04:48:06;101856.19;;;16.84;100.00
60244;BME280;46106;51.468;5.814;2023-08-20T04:50:32;101865.28;;;16.86;100.00
60244;BME280;46106;51.468;5.814;2023-08-20T04:52:59;101863.63;;;16.83;100.00
60244;BME280;46106;51.468;5.814;2023-08-20T04:55:27;101867.47;;;16.92;100.00
60244;BME280;46106;51.468;5.814;2023-08-20T04:57:53;101871.28;;;16.91;100.00
60244;BME280;46106;51.468;5.814;2023-08-20T05:00:19;101866.75;;;16.90;100.00
60244;BME280;46106;51.468;5.814;2023-08-20T05:02:45;101874.03;;;16.91;100.00
60244;BME280;46106;51.468;5.814;2023-08-20T05:05:11;101875.78;;;16.92;100.00
60244;BME280;46106;51.468;5.814;2023-08-20T05:07:37;101875.63;;;16.94;100.00
60244;BME280;46106;51.468;5.814;2023-08-20T05:10:02;101878.13;;;16.97;100.00
60244;BME280;46106;51.468;5.814;2023-08-20T05:12:28;101871.19;;;17.02;100.00
60244;BME280;46106;51.468;5.814;2023-08-20T05:14:53;101875.41;;;17.06;100.00
60244;BME280;46106;51.468;5.814;2023-08-20T05:17:19;101886.47;;;17.06;100.00
60244;BME280;46106;51.468;5.814;2023-08-20T05:19:45;101880.94;;;17.06;100.00
60244;BME280;46106;51.468;5.814;2023-08-20T05:22:10;101879.34;;;17.04;100.00
60244;BME280;46106;51.468;5.814;2023-08-20T05:24:37;101890.59;;;17.12;100.00
60244;BME280;46106;51.468;5.814;2023-08-20T05:27:14;101886.84;;;17.23;100.00
60244;BME280;46106;51.468;5.814;2023-08-20T05:29:41;101886.88;;;17.33;100.00
60244;BME280;46106;51.468;5.814;2023-08-20T05:32:07;101891.00;;;17.38;100.00
60244;BME280;46106;51.468;5.814;2023-08-20T05:34:34;101890.00;;;17.49;100.00
60244;BME280;46106;51.468;5.814;2023-08-20T05:37:00;101892.50;;;17.62;100.00
60244;BME280;46106;51.468;5.814;2023-08-20T05:39:26;101894.13;;;17.64;100.00
60244;BME280;46106;51.468;5.814;2023-08-20T05:41:55;101898.03;;;17.62;100.00
60244;BME280;46106;51.468;5.814;2023-08-20T05:44:21;101889.03;;;17.70;100.00
60244;BME280;46106;51.468;5.814;2023-08-20T05:46:47;101895.03;;;17.85;100.00
60244;BME280;46106;51.468;5.814;2023-08-20T05:49:14;101893.91;;;18.07;100.00
60244;BME280;46106;51.468;5.814;2023-08-20T05:51:42;101888.50;;;18.34;100.00
60244;BME280;46106;51.468;5.814;2023-08-20T05:54:07;101894.19;;;18.33;100.00
60244;BME280;46106;51.468;5.814;2023-08-20T05:56:33;101896.41;;;18.19;100.00
60244;BME280;46106;51.468;5.814;2023-08-20T05:59:00;101888.94;;;18.30;100.00
60244;BME280;46106;51.468;5.814;2023-08-20T06:01:27;101885.41;;;18.67;100.00
60244;BME280;46106;51.468;5.814;2023-08-20T06:03:53;101887.28;;;18.96;100.00
60244;BME280;46106;51.468;5.814;2023-08-20T06:06:19;101871.75;;;19.31;100.00
60244;BME280;46106;51.468;5.814;2023-08-20T06:08:44;101878.38;;;19.47;100.00
60244;BME280;46106;51.468;5.814;2023-08-20T06:11:10;101889.09;;;19.42;100.00
60244;BME280;46106;51.468;5.814;2023-08-20T06:13:37;101893.59;;;19.53;100.00
60244;BME280;46106;51.468;5.814;2023-08-20T06:16:03;101890.25;;;19.95;100.00
60244;BME280;46106;51.468;5.814;2023-08-20T06:18:29;101895.25;;;20.10;100.00
60244;BME280;46106;51.468;5.814;2023-08-20T06:20:56;101887.91;;;20.18;100.00
60244;BME280;46106;51.468;5.814;2023-08-20T06:23:23;101889.63;;;20.19;100.00
60244;BME280;46106;51.468;5.814;2023-08-20T06:25:50;101882.19;;;20.64;100.00
60244;BME280;46106;51.468;5.814;2023-08-20T06:28:15;101874.13;;;21.05;100.00
60244;BME280;46106;51.468;5.814;2023-08-20T06:30:41;101884.44;;;20.87;100.00
60244;BME280;46106;51.468;5.814;2023-08-20T06:33:07;101876.59;;;21.17;100.00
60244;BME280;46106;51.468;5.814;2023-08-20T06:35:34;101880.56;;;21.06;100.00
60244;BME280;46106;51.468;5.814;2023-08-20T06:38:00;101879.47;;;20.99;100.00
60244;BME280;46106;51.468;5.814;2023-08-20T06:40:25;101884.44;;;21.13;100.00
60244;BME280;46106;51.468;5.814;2023-08-20T06:42:52;101893.22;;;21.69;100.00
60244;BME280;46106;51.468;5.814;2023-08-20T06:45:17;101890.09;;;21.72;100.00
60244;BME280;46106;51.468;5.814;2023-08-20T06:47:43;101892.31;;;21.52;100.00
60244;BME280;46106;51.468;5.814;2023-08-20T06:50:08;101902.84;;;21.40;100.00
60244;BME280;46106;51.468;5.814;2023-08-20T06:52:34;101905.41;;;21.60;100.00
60244;BME280;46106;51.468;5.814;2023-08-20T06:55:00;101900.59;;;21.78;100.00
60244;BME280;46106;51.468;5.814;2023-08-20T06:57:27;101909.13;;;21.77;100.00
60244;BME280;46106;51.468;5.814;2023-08-20T06:59:52;101907.00;;;21.71;100.00
60244;BME280;46106;51.468;5.814;2023-08-20T07:02:19;101898.41;;;21.56;100.00
60244;BME280;46106;51.468;5.814;2023-08-20T07:04:45;101909.63;;;21.80;100.00
60244;BME280;46106;51.468;5.814;2023-08-20T07:07:12;101898.88;;;22.02;100.00
60244;BME280;46106;51.468;5.814;2023-08-20T07:09:37;101903.44;;;22.03;100.00
60244;BME280;46106;51.468;5.814;2023-08-20T07:12:04;101916.41;;;22.70;100.00
60244;BME280;46106;51.468;5.814;2023-08-20T07:14:30;101913.06;;;22.99;100.00
60244;BME280;46106;51.468;5.814;2023-08-20T07:16:55;101923.91;;;22.36;100.00
60244;BME280;46106;51.468;5.814;2023-08-20T07:19:21;101910.47;;;22.81;100.00
60244;BME280;46106;51.468;5.814;2023-08-20T07:21:48;101913.28;;;22.73;100.00
60244;BME280;46106;51.468;5.814;2023-08-20T07:24:13;101913.63;;;23.51;100.00
60244;BME280;46106;51.468;5.814;2023-08-20T07:26:40;101919.03;;;23.52;100.00
60244;BME280;46106;51.468;5.814;2023-08-20T07:29:07;101915.81;;;24.03;100.00
60244;BME280;46106;51.468;5.814;2023-08-20T07:31:33;101924.03;;;24.51;100.00
60244;BME280;46106;51.468;5.814;2023-08-20T07:34:01;101922.91;;;24.83;100.00
60244;BME280;46106;51.468;5.814;2023-08-20T07:36:31;101924.06;;;24.89;100.00
60244;BME280;46106;51.468;5.814;2023-08-20T07:38:59;101924.31;;;24.64;100.00
60244;BME280;46106;51.468;5.814;2023-08-20T07:41:25;101928.41;;;25.29;100.00
60244;BME280;46106;51.468;5.814;2023-08-20T07:43:50;101919.69;;;25.09;100.00
60244;BME280;46106;51.468;5.814;2023-08-20T07:46:16;101922.16;;;24.89;100.00
60244;BME280;46106;51.468;5.814;2023-08-20T07:48:41;101918.50;;;24.43;100.00
60244;BME280;46106;51.468;5.814;2023-08-20T07:51:09;101919.38;;;24.43;100.00
60244;BME280;46106;51.468;5.814;2023-08-20T07:53:35;101909.31;;;24.95;100.00
60244;BME280;46106;51.468;5.814;2023-08-20T07:56:01;101919.28;;;24.59;100.00
60244;BME280;46106;51.468;5.814;2023-08-20T07:58:27;101918.56;;;24.81;100.00
60244;BME280;46106;51.468;5.814;2023-08-20T08:00:53;101919.72;;;25.39;100.00
60244;BME280;46106;51.468;5.814;2023-08-20T08:03:20;101925.00;;;24.66;100.00
60244;BME280;46106;51.468;5.814;2023-08-20T08:05:51;101926.66;;;25.28;100.00
60244;BME280;46106;51.468;5.814;2023-08-20T08:08:19;101924.78;;;24.21;100.00
60244;BME280;46106;51.468;5.814;2023-08-20T08:10:45;101923.69;;;24.31;100.00
60244;BME280;46106;51.468;5.814;2023-08-20T08:13:15;101930.56;;;25.42;100.00
60244;BME280;46106;51.468;5.814;2023-08-20T08:15:41;101927.91;;;25.26;100.00
60244;BME280;46106;51.468;5.814;2023-08-20T08:18:07;101939.06;;;25.49;100.00
60244;BME280;46106;51.468;5.814;2023-08-20T08:20:34;101929.75;;;25.63;100.00
60244;BME280;46106;51.468;5.814;2023-08-20T08:23:00;101942.91;;;25.48;100.00
60244;BME280;46106;51.468;5.814;2023-08-20T08:25:25;101940.28;;;25.46;99.92
60244;BME280;46106;51.468;5.814;2023-08-20T08:27:51;101944.66;;;26.15;98.04
60244;BME280;46106;51.468;5.814;2023-08-20T08:30:17;101944.75;;;25.56;100.00
60244;BME280;46106;51.468;5.814;2023-08-20T08:32:42;101946.50;;;25.57;100.00
60244;BME280;46106;51.468;5.814;2023-08-20T08:35:08;101947.94;;;25.67;100.00
60244;BME280;46106;51.468;5.814;2023-08-20T08:37:33;101948.63;;;25.55;100.00
60244;BME280;46106;51.468;5.814;2023-08-20T08:39:59;101953.09;;;26.73;96.92
60244;BME280;46106;51.468;5.814;2023-08-20T08:42:25;101950.06;;;26.32;98.64
60244;BME280;46106;51.468;5.814;2023-08-20T08:44:50;101956.91;;;26.66;95.70
60244;BME280;46106;51.468;5.814;2023-08-20T08:47:18;101956.09;;;26.72;96.40
60244;BME280;46106;51.468;5.814;2023-08-20T08:49:44;101954.25;;;26.21;100.00
60244;BME280;46106;51.468;5.814;2023-08-20T08:52:12;101956.94;;;26.94;94.18
60244;BME280;46106;51.468;5.814;2023-08-20T08:54:38;101960.81;;;26.65;93.39
60244;BME280;46106;51.468;5.814;2023-08-20T08:57:04;101945.88;;;26.64;95.44
60244;BME280;46106;51.468;5.814;2023-08-20T08:59:30;101961.78;;;26.78;94.34
60244;BME280;46106;51.468;5.814;2023-08-20T09:01:55;101955.63;;;26.68;96.63
60244;BME280;46106;51.468;5.814;2023-08-20T09:04:22;101957.56;;;26.68;96.70
60244;BME280;46106;51.468;5.814;2023-08-20T09:06:52;101962.63;;;27.01;96.46
60244;BME280;46106;51.468;5.814;2023-08-20T09:09:19;101961.06;;;27.26;95.55
60244;BME280;46106;51.468;5.814;2023-08-20T09:11:46;101959.75;;;27.50;91.87
60244;BME280;46106;51.468;5.814;2023-08-20T09:14:28;101968.75;;;27.11;96.13
60244;BME280;46106;51.468;5.814;2023-08-20T09:16:59;101961.22;;;27.46;91.90
60244;BME280;46106;51.468;5.814;2023-08-20T09:19:28;101967.94;;;27.45;90.31
60244;BME280;46106;51.468;5.814;2023-08-20T09:21:53;101955.06;;;27.64;92.90
60244;BME280;46106;51.468;5.814;2023-08-20T09:24:40;101954.03;;;28.20;85.96
60244;BME280;46106;51.468;5.814;2023-08-20T09:27:09;101956.81;;;28.14;89.09
60244;BME280;46106;51.468;5.814;2023-08-20T09:29:48;101956.81;;;27.65;90.22
60244;BME280;46106;51.468;5.814;2023-08-20T09:32:24;101956.16;;;27.07;90.86
60244;BME280;46106;51.468;5.814;2023-08-20T09:34:50;101956.31;;;27.27;93.91
60244;BME280;46106;51.468;5.814;2023-08-20T09:37:18;101959.34;;;26.97;89.26
60244;BME280;46106;51.468;5.814;2023-08-20T09:39:44;101957.09;;;27.42;87.22
60244;BME280;46106;51.468;5.814;2023-08-20T09:42:11;101952.16;;;27.86;85.58
60244;BME280;46106;51.468;5.814;2023-08-20T09:44:40;101958.38;;;27.40;86.92
60244;BME280;46106;51.468;5.814;2023-08-20T09:47:08;101954.25;;;27.36;87.41
60244;BME280;46106;51.468;5.814;2023-08-20T09:49:39;101952.38;;;27.49;87.72
60244;BME280;46106;51.468;5.814;2023-08-20T09:52:07;101949.28;;;27.79;84.10
60244;BME280;46106;51.468;5.814;2023-08-20T09:54:51;101952.53;;;27.76;82.54
60244;BME280;46106;51.468;5.814;2023-08-20T09:57:40;101952.94;;;28.21;77.76
60244;BME280;46106;51.468;5.814;2023-08-20T10:00:07;101954.66;;;28.09;82.41
60244;BME280;46106;51.468;5.814;2023-08-20T10:02:38;101958.53;;;28.08;78.11
60244;BME280;46106;51.468;5.814;2023-08-20T10:05:06;101961.44;;;28.48;76.00
60244;BME280;46106;51.468;5.814;2023-08-20T10:07:33;101963.25;;;29.16;69.66
60244;BME280;46106;51.468;5.814;2023-08-20T10:10:02;101962.59;;;28.60;75.01
60244;BME280;46106;51.468;5.814;2023-08-20T10:12:30;101956.75;;;28.62;71.95
60244;BME280;46106;51.468;5.814;2023-08-20T10:14:57;101958.50;;;28.70;71.69
60244;BME280;46106;51.468;5.814;2023-08-20T10:17:24;101957.75;;;28.41;70.07
60244;BME280;46106;51.468;5.814;2023-08-20T10:19:52;101948.69;;;28.52;68.23
60244;BME280;46106;51.468;5.814;2023-08-20T10:22:19;101956.47;;;28.44;68.00
60244;BME280;46106;51.468;5.814;2023-08-20T10:24:49;101956.34;;;28.78;70.78
60244;BME280;46106;51.468;5.814;2023-08-20T10:27:30;101952.31;;;28.19;73.43
60244;BME280;46106;51.468;5.814;2023-08-20T10:29:59;101947.44;;;28.68;74.95
60244;BME280;46106;51.468;5.814;2023-08-20T10:35:15;101953.19;;;28.40;67.94
60244;BME280;46106;51.468;5.814;2023-08-20T10:38:03;101958.06;;;28.86;66.65
60244;BME280;46106;51.468;5.814;2023-08-20T10:40:57;101948.06;;;28.97;69.62
60244;BME280;46106;51.468;5.814;2023-08-20T10:43:30;101959.38;;;28.70;66.69
60244;BME280;46106;51.468;5.814;2023-08-20T10:46:06;101959.53;;;28.49;68.93
60244;BME280;46106;51.468;5.814;2023-08-20T10:48:32;101956.53;;;28.57;63.81
60244;BME280;46106;51.468;5.814;2023-08-20T10:53:38;101953.16;;;28.27;66.12
60244;BME280;46106;51.468;5.814;2023-08-20T10:56:14;101961.53;;;28.95;63.91
60244;BME280;46106;51.468;5.814;2023-08-20T10:58:42;101959.78;;;27.99;64.83
60244;BME280;46106;51.468;5.814;2023-08-20T11:01:19;101967.28;;;27.85;64.87
60244;BME280;46106;51.468;5.814;2023-08-20T11:03:45;101961.34;;;27.60;68.75
60244;BME280;46106;51.468;5.814;2023-08-20T11:06:11;101963.75;;;28.11;66.17
60244;BME280;46106;51.468;5.814;2023-08-20T11:08:38;101960.94;;;28.11;66.17
60244;BME280;46106;51.468;5.814;2023-08-20T11:11:05;101949.88;;;28.03;66.88
60244;BME280;46106;51.468;5.814;2023-08-20T11:13:32;101953.50;;;27.55;68.41
60244;BME280;46106;51.468;5.814;2023-08-20T11:15:59;101945.19;;;27.82;69.12
60244;BME280;46106;51.468;5.814;2023-08-20T11:18:24;101956.31;;;28.58;66.37
60244;BME280;46106;51.468;5.814;2023-08-20T11:20:51;101952.19;;;28.74;64.11
60244;BME280;46106;51.468;5.814;2023-08-20T11:23:17;101952.63;;;27.26;67.62
60244;BME280;46106;51.468;5.814;2023-08-20T11:25:43;101948.38;;;26.81;71.76
60244;BME280;46106;51.468;5.814;2023-08-20T11:28:09;101952.78;;;27.18;69.08
60244;BME280;46106;51.468;5.814;2023-08-20T11:30:35;101947.94;;;27.68;63.35
60244;BME280;46106;51.468;5.814;2023-08-20T11:33:02;101947.84;;;27.48;66.83
60244;BME280;46106;51.468;5.814;2023-08-20T11:35:28;101944.81;;;27.50;69.03
60244;BME280;46106;51.468;5.814;2023-08-20T11:37:54;101946.34;;;27.53;67.82
60244;BME280;46106;51.468;5.814;2023-08-20T11:40:23;101942.22;;;27.48;67.63
60244;BME280;46106;51.468;5.814;2023-08-20T11:42:48;101944.34;;;27.81;62.91
60244;BME280;46106;51.468;5.814;2023-08-20T11:45:14;101938.69;;;27.75;64.59
60244;BME280;46106;51.468;5.814;2023-08-20T11:47:41;101937.59;;;28.24;63.17
60244;BME280;46106;51.468;5.814;2023-08-20T11:50:07;101941.88;;;27.65;61.46
60244;BME280;46106;51.468;5.814;2023-08-20T11:52:35;101947.53;;;27.37;66.48
60244;BME280;46106;51.468;5.814;2023-08-20T11:55:01;101941.72;;;26.82;64.58
60244;BME280;46106;51.468;5.814;2023-08-20T11:57:28;101943.72;;;26.88;67.76
60244;BME280;46106;51.468;5.814;2023-08-20T11:59:54;101934.41;;;27.16;63.80
60244;BME280;46106;51.468;5.814;2023-08-20T12:02:26;101926.13;;;27.36;64.91
60244;BME280;46106;51.468;5.814;2023-08-20T12:04:55;101924.09;;;27.64;65.86
60244;BME280;46106;51.468;5.814;2023-08-20T12:07:27;101916.56;;;27.72;62.30
60244;BME280;46106;51.468;5.814;2023-08-20T12:09:55;101919.38;;;27.72;62.61
60244;BME280;46106;51.468;5.814;2023-08-20T12:12:21;101914.22;;;27.82;63.52
60244;BME280;46106;51.468;5.814;2023-08-20T12:14:48;101906.41;;;27.77;63.19
60244;BME280;46106;51.468;5.814;2023-08-20T12:17:17;101900.81;;;27.84;62.64
60244;BME280;46106;51.468;5.814;2023-08-20T12:19:44;101895.53;;;27.67;62.86
60244;BME280;46106;51.468;5.814;2023-08-20T12:22:09;101896.91;;;27.78;63.58
60244;BME280;46106;51.468;5.814;2023-08-20T12:24:35;101894.38;;;27.97;62.17
60244;BME280;46106;51.468;5.814;2023-08-20T12:27:00;101887.06;;;28.02;66.06
60244;BME280;46106;51.468;5.814;2023-08-20T12:29:26;101885.25;;;27.88;62.43
60244;BME280;46106;51.468;5.814;2023-08-20T12:31:51;101886.97;;;27.89;64.34
60244;BME280;46106;51.468;5.814;2023-08-20T12:34:16;101888.69;;;27.83;61.49
60244;BME280;46106;51.468;5.814;2023-08-20T12:36:42;101885.69;;;27.92;62.21
60244;BME280;46106;51.468;5.814;2023-08-20T12:39:08;101874.19;;;27.86;65.07
60244;BME280;46106;51.468;5.814;2023-08-20T12:41:33;101885.13;;;28.16;62.16
60244;BME280;46106;51.468;5.814;2023-08-20T12:44:01;101887.50;;;28.13;60.31
60244;BME280;46106;51.468;5.814;2023-08-20T12:46:27;101880.41;;;28.30;64.12
60244;BME280;46106;51.468;5.814;2023-08-20T12:48:52;101886.47;;;28.34;62.58
60244;BME280;46106;51.468;5.814;2023-08-20T12:51:18;101887.09;;;28.16;64.18
60244;BME280;46106;51.468;5.814;2023-08-20T12:53:43;101890.31;;;28.13;62.03